Time;durP1;ratioP1;P1;durP2;ratioP2;P2;SDS_P1;SDS_P2;PMS_P1;PMS_P2;Temp;Humidity;BMP_temperature;BMP_pressure;BME280_temperature;BME280_humidity;BME280_pressure;Samples;Min_cycle;Max_cycle;Signal;HPM_P1;HPM_P2
2021/10/16 00:00:39;;;;;;;0.90;0.90;;;;;;;7.44;70.23;99781.81;4829108;29;20081;-82
2021/10/16 00:03:04;;;;;;;1.77;1.67;;;;;;;7.49;69.88;99779.88;4828293;29;20057;-79
2021/10/16 00:05:31;;;;;;;1.00;1.00;;;;;;;7.47;70.55;99771.28;4860884;29;20060;-79
2021/10/16 00:07:56;;;;;;;1.90;1.80;;;;;;;7.49;70.21;99772.94;4860849;29;20060;-80
2021/10/16 00:10:22;;;;;;;1.77;1.77;;;;;;;7.44;70.71;99776.63;4828750;29;20102;-79
2021/10/16 00:12:49;;;;;;;2.53;2.33;;;;;;;7.48;70.53;99779.03;4860463;29;20065;-78
2021/10/16 00:15:15;;;;;;;1.40;1.40;;;;;;;7.42;70.61;99773.25;4859834;29;20508;-80
2021/10/16 00:17:41;;;;;;;1.85;1.75;;;;;;;7.42;70.85;99774.09;4860117;29;20066;-80
2021/10/16 00:20:08;;;;;;;1.77;1.77;;;;;;;7.49;70.79;99779.88;4843710;29;20046;-79
2021/10/16 00:22:34;;;;;;;2.50;2.35;;;;;;;7.50;70.90;99782.38;4843862;29;20057;-80
2021/10/16 00:25:00;;;;;;;2.00;1.90;;;;;;;7.59;70.44;99781.16;4858993;29;20053;-78
2021/10/16 00:27:26;;;;;;;1.65;1.58;;;;;;;7.59;70.63;99771.59;4860312;29;20056;-80
2021/10/16 00:29:52;;;;;;;2.65;2.55;;;;;;;7.66;70.07;99777.34;4843989;29;20095;-79
2021/10/16 00:32:18;;;;;;;2.70;2.47;;;;;;;7.71;70.08;99765.03;4828173;29;20057;-78
2021/10/16 00:34:44;;;;;;;2.13;2.03;;;;;;;7.72;69.90;99780.53;4841948;29;20045;-79
2021/10/16 00:37:10;;;;;;;2.05;1.95;;;;;;;7.67;70.18;99774.72;4842687;29;20065;-78
2021/10/16 00:39:36;;;;;;;1.65;1.55;;;;;;;7.69;70.11;99767.69;4858610;29;20197;-79
2021/10/16 00:42:04;;;;;;;6.50;2.20;;;;;;;7.77;69.90;99770.78;4858649;29;20160;-77
2021/10/16 00:44:30;;;;;;;2.03;2.03;;;;;;;7.73;70.10;99771.00;4844149;29;20045;-79
2021/10/16 00:46:56;;;;;;;2.25;2.15;;;;;;;7.80;70.09;99769.81;4864769;29;20053;-80
2021/10/16 00:49:23;;;;;;;2.45;2.17;;;;;;;7.75;70.38;99776.97;4874102;29;20042;-80
2021/10/16 00:51:50;;;;;;;2.90;2.70;;;;;;;7.77;69.82;99768.19;4841700;29;20053;-80
2021/10/16 00:54:19;;;;;;;2.78;2.10;;;;;;;7.80;70.39;99775.00;4864230;29;20050;-80
2021/10/16 00:56:47;;;;;;;1.08;1.08;;;;;;;7.79;70.20;99774.16;4860174;29;20168;-80
2021/10/16 00:59:14;;;;;;;1.98;1.92;;;;;;;7.79;70.34;99775.91;4828194;29;20132;-79
2021/10/16 01:01:40;;;;;;;3.33;2.47;;;;;;;7.84;69.94;99781.75;4812610;29;20121;-80
2021/10/16 01:04:06;;;;;;;2.97;2.78;;;;;;;7.86;70.27;99774.72;4859324;29;20140;-81
2021/10/16 01:06:38;;;;;;;2.22;2.13;;;;;;;7.88;70.06;99775.53;4846186;29;20487;-81
2021/10/16 01:09:10;;;;;;;2.15;2.05;;;;;;;7.91;70.11;99777.13;4862830;29;20053;-81
2021/10/16 01:11:58;;;;;;;1.35;1.35;;;;;;;7.92;69.71;99774.44;4844874;29;20054;-81
2021/10/16 01:14:25;;;;;;;1.58;1.52;;;;;;;7.88;69.76;99773.72;4831831;29;20053;-82
2021/10/16 01:16:53;;;;;;;8.77;1.58;;;;;;;7.93;69.82;99770.94;4844214;29;20057;-80
2021/10/16 01:19:20;;;;;;;3.90;2.15;;;;;;;7.97;69.54;99771.66;4859685;29;20057;-78
2021/10/16 01:21:48;;;;;;;8.10;2.47;;;;;;;7.96;69.66;99769.94;4845318;29;20385;-80
2021/10/16 01:24:15;;;;;;;1.35;1.33;;;;;;;7.99;69.65;99764.59;4861164;29;20069;-79
2021/10/16 01:26:42;;;;;;;2.10;2.00;;;;;;;7.99;69.44;99769.81;4842812;29;20045;-79
2021/10/16 01:29:09;;;;;;;2.58;2.47;;;;;;;8.00;69.28;99761.97;4826738;29;20456;-79
2021/10/16 01:31:37;;;;;;;1.77;1.60;;;;;;;8.05;69.17;99767.78;4827102;29;20053;-79
2021/10/16 01:34:03;;;;;;;3.00;2.65;;;;;;;8.04;69.49;99762.66;4841925;29;20057;-77
2021/10/16 01:36:49;;;;;;;3.30;2.42;;;;;;;8.06;69.33;99763.41;4826956;29;20152;-79
2021/10/16 01:39:18;;;;;;;1.35;1.17;;;;;;;8.05;69.36;99759.16;4827416;29;20069;-78
2021/10/16 01:41:45;;;;;;;3.47;2.08;;;;;;;8.00;69.68;99755.91;4826602;29;20432;-81
2021/10/16 01:44:13;;;;;;;2.50;2.38;;;;;;;8.03;69.23;99751.41;4811809;29;20061;-79
2021/10/16 01:46:39;;;;;;;1.90;1.80;;;;;;;8.05;69.83;99753.97;4826589;29;20557;-80
2021/10/16 01:49:07;;;;;;;1.50;1.40;;;;;;;8.02;69.64;99751.47;4841673;29;20057;-79
2021/10/16 01:51:33;;;;;;;2.00;1.85;;;;;;;8.08;69.59;99743.41;4842142;29;20061;-79
2021/10/16 01:54:00;;;;;;;2.25;2.15;;;;;;;8.10;69.24;99738.97;4858403;29;20440;-80
2021/10/16 01:56:26;;;;;;;2.50;2.28;;;;;;;8.11;69.46;99745.88;4841667;29;20137;-80
2021/10/16 01:58:52;;;;;;;1.52;1.50;;;;;;;8.04;69.63;99727.13;4826828;29;20057;-80
2021/10/16 02:01:26;;;;;;;2.88;2.30;;;;;;;8.14;69.85;99736.16;4812500;29;20500;-81
2021/10/16 02:04:01;;;;;;;1.77;1.70;;;;;;;8.17;69.58;99727.38;4842239;29;20064;-80
2021/10/16 02:06:30;;;;;;;2.33;2.17;;;;;;;8.22;69.39;99726.25;4842810;29;20202;-80
2021/10/16 02:08:58;;;;;;;6.45;2.65;;;;;;;8.21;69.92;99727.13;4843079;29;20053;-81
2021/10/16 02:11:25;;;;;;;2.03;1.92;;;;;;;8.20;69.88;99717.69;4851994;29;20064;-81
2021/10/16 02:13:54;;;;;;;4.22;2.85;;;;;;;8.29;69.20;99719.88;4843877;29;20049;-80
2021/10/16 02:16:21;;;;;;;2.97;2.13;;;;;;;8.30;68.87;99713.75;4843121;29;20110;-81
2021/10/16 02:18:52;;;;;;;1.60;1.50;;;;;;;8.32;68.98;99708.47;4842657;29;20068;-81
2021/10/16 02:21:20;;;;;;;1.23;1.23;;;;;;;8.34;69.58;99722.25;4857870;29;20061;-80
2021/10/16 02:23:46;;;;;;;4.90;3.20;;;;;;;8.27;69.27;99705.22;4841149;29;20052;-81
2021/10/16 02:26:15;;;;;;;3.53;2.75;;;;;;;8.32;69.54;99685.91;4841241;29;20068;-79
2021/10/16 02:28:45;;;;;;;2.40;2.30;;;;;;;8.31;69.18;99707.63;4841750;29;20057;-80
2021/10/16 02:31:34;;;;;;;2.70;2.50;;;;;;;8.30;69.45;99716.34;4837352;29;20050;-78
2021/10/16 02:34:03;;;;;;;3.05;2.78;;;;;;;8.27;70.08;99713.88;4841185;29;20057;-79
2021/10/16 02:36:36;;;;;;;2.13;2.03;;;;;;;8.27;69.77;99724.28;4841121;29;20057;-79
2021/10/16 02:39:02;;;;;;;0.90;0.90;;;;;;;8.31;69.58;99705.03;4841122;29;20061;-80
2021/10/16 02:41:34;;;;;;;3.28;1.70;;;;;;;8.32;69.90;99709.31;4857803;29;20088;-79
2021/10/16 02:44:01;;;;;;;1.80;1.70;;;;;;;8.24;70.25;99724.44;4840917;29;20064;-78
2021/10/16 02:46:28;;;;;;;4.43;2.15;;;;;;;8.26;69.85;99701.78;4826809;29;20056;-80
2021/10/16 02:48:54;;;;;;;1.70;1.42;;;;;;;8.24;70.39;99719.22;4828265;29;20045;-80
2021/10/16 02:51:20;;;;;;;3.20;2.75;;;;;;;8.24;69.98;99708.81;4860208;29;20057;-81
2021/10/16 02:53:47;;;;;;;6.53;2.90;;;;;;;8.16;70.32;99687.53;4842428;29;20279;-81
2021/10/16 02:56:14;;;;;;;1.60;1.60;;;;;;;8.27;70.18;99698.28;4842154;29;20084;-81
2021/10/16 02:58:41;;;;;;;1.50;1.50;;;;;;;8.27;69.99;99703.47;4825741;29;20432;-79
2021/10/16 03:01:07;;;;;;;2.80;2.60;;;;;;;8.28;70.36;99709.53;4837594;29;20058;-79
2021/10/16 03:03:34;;;;;;;1.88;1.77;;;;;;;8.30;69.96;99716.34;4838064;29;20111;-79
2021/10/16 03:06:00;;;;;;;1.50;1.40;;;;;;;8.27;69.92;99713.88;4823107;29;20057;-80
2021/10/16 03:08:28;;;;;;;3.08;2.83;;;;;;;8.27;70.00;99697.44;4837709;29;20150;-81
2021/10/16 03:10:54;;;;;;;4.00;3.45;;;;;;;8.21;70.67;99703.75;4837883;29;20057;-80
2021/10/16 03:13:33;;;;;;;4.82;2.92;;;;;;;8.23;70.15;99695.88;4824044;29;20052;-81
2021/10/16 03:15:59;;;;;;;1.50;1.48;;;;;;;8.25;70.32;99705.28;4838064;29;20057;-77
2021/10/16 03:18:25;;;;;;;1.50;1.42;;;;;;;8.24;69.67;99693.22;4837578;29;20057;-79
2021/10/16 03:20:52;;;;;;;3.65;1.92;;;;;;;8.33;70.02;99702.34;4841117;29;20115;-80
2021/10/16 03:23:18;;;;;;;2.00;1.95;;;;;;;8.34;69.83;99683.25;4841348;29;20077;-79
2021/10/16 03:25:45;;;;;;;3.05;2.95;;;;;;;8.40;69.57;99695.09;4841961;29;20118;-80
2021/10/16 03:28:12;;;;;;;2.55;2.45;;;;;;;8.41;69.63;99699.41;4841178;29;20202;-81
2021/10/16 03:30:38;;;;;;;2.47;2.38;;;;;;;8.46;69.43;99693.03;4843401;29;20050;-81
2021/10/16 03:33:05;;;;;;;2.95;2.70;;;;;;;8.51;68.97;99690.22;4843574;29;20073;-80
2021/10/16 03:35:31;;;;;;;2.78;2.58;;;;;;;8.45;69.36;99691.34;4843238;29;20206;-81
2021/10/16 03:37:57;;;;;;;2.20;2.10;;;;;;;8.51;69.19;99687.63;4827103;29;20478;-80
2021/10/16 03:40:23;;;;;;;2.70;2.60;;;;;;;8.47;68.80;99678.28;4842335;29;20073;-80
2021/10/16 03:42:50;;;;;;;2.63;2.38;;;;;;;8.57;68.42;99695.13;4826170;29;20058;-80
2021/10/16 03:45:20;;;;;;;2.78;2.50;;;;;;;8.46;69.00;99676.59;4842338;29;20521;-80
2021/10/16 03:47:47;;;;;;;2.92;2.78;;;;;;;8.51;68.75;99690.22;4842384;29;20057;-81
2021/10/16 03:50:13;;;;;;;3.05;2.70;;;;;;;8.52;68.54;99697.09;4811622;29;20071;-80
2021/10/16 03:52:39;;;;;;;2.58;2.45;;;;;;;8.50;68.54;99678.13;4841317;29;20099;-80
2021/10/16 03:55:06;;;;;;;2.08;1.98;;;;;;;8.53;68.64;99704.84;4840733;29;20057;-79
2021/10/16 03:57:33;;;;;;;3.17;2.97;;;;;;;8.54;68.62;99701.31;4840085;29;20437;-80
2021/10/16 03:59:59;;;;;;;2.53;2.40;;;;;;;8.56;68.32;99690.84;4841852;29;20080;-80
2021/10/16 04:02:26;;;;;;;1.98;1.83;;;;;;;8.57;68.41;99697.72;4824879;29;20669;-79
2021/10/16 04:04:53;;;;;;;9.10;2.67;;;;;;;8.60;68.17;99700.19;4841187;29;20053;-80
2021/10/16 04:07:20;;;;;;;1.48;1.38;;;;;;;8.55;68.22;99692.59;4840404;29;20058;-78
2021/10/16 04:09:51;;;;;;;6.78;2.30;;;;;;;8.56;68.07;99694.28;4810906;29;20144;-79
2021/10/16 04:12:17;;;;;;;2.83;2.45;;;;;;;8.54;68.03;99706.50;4840197;29;20045;-78
2021/10/16 04:14:44;;;;;;;1.27;1.27;;;;;;;8.58;68.20;99702.00;4840704;29;20046;-80
2021/10/16 04:17:13;;;;;;;2.58;2.47;;;;;;;8.57;67.95;99702.94;4810780;29;20096;-79
2021/10/16 04:19:39;;;;;;;2.42;2.22;;;;;;;8.60;67.45;99700.19;4825364;29;20529;-79
2021/10/16 04:22:05;;;;;;;21.38;3.30;;;;;;;8.58;67.73;99700.25;4837651;29;20050;-77
2021/10/16 04:24:32;;;;;;;3.33;3.13;;;;;;;8.58;68.23;99707.19;4841165;29;20060;-77
2021/10/16 04:26:59;;;;;;;2.85;2.65;;;;;;;8.55;67.82;99702.16;4836392;29;20111;-78
2021/10/16 04:29:28;;;;;;;1.85;1.75;;;;;;;8.53;68.04;99699.63;4850171;29;20061;-78
2021/10/16 04:32:04;;;;;;;1.92;1.83;;;;;;;8.53;68.37;99704.00;4853841;29;20122;-77
2021/10/16 04:34:30;;;;;;;3.58;3.28;;;;;;;8.53;68.23;99704.84;4834900;29;20042;-78
2021/10/16 04:36:59;;;;;;;2.03;1.92;;;;;;;8.54;67.77;99708.28;4822121;29;20066;-77
2021/10/16 04:39:27;;;;;;;2.55;2.35;;;;;;;8.56;68.05;99703.84;4821366;29;20056;-76
2021/10/16 04:41:54;;;;;;;2.05;1.95;;;;;;;8.60;68.07;99700.19;4831079;29;20061;-79
2021/10/16 04:44:20;;;;;;;2.88;2.38;;;;;;;8.57;67.43;99690.78;4839772;29;20525;-78
2021/10/16 04:46:47;;;;;;;2.38;2.28;;;;;;;8.62;67.53;99708.75;4839833;29;20057;-78
2021/10/16 04:49:13;;;;;;;3.00;2.83;;;;;;;8.57;67.59;99689.94;4809772;29;20428;-78
2021/10/16 04:51:42;;;;;;;1.80;1.70;;;;;;;8.58;67.88;99702.00;4840018;29;20054;-79
2021/10/16 04:54:10;;;;;;;9.40;1.58;;;;;;;8.55;67.54;99691.75;4824678;29;20144;-79
2021/10/16 04:56:36;;;;;;;2.05;1.95;;;;;;;8.58;67.53;99702.00;4824400;29;20114;-79
2021/10/16 04:59:04;;;;;;;2.00;1.90;;;;;;;8.61;67.71;99689.69;4839333;29;20055;-77
2021/10/16 05:01:31;;;;;;;1.23;1.23;;;;;;;8.62;67.36;99693.13;4823884;29;20062;-80
2021/10/16 05:03:58;;;;;;;1.60;1.50;;;;;;;8.62;67.69;99696.56;4839621;29;20141;-80
2021/10/16 05:06:24;;;;;;;1.20;1.20;;;;;;;8.62;67.43;99699.19;4832911;29;20096;-80
2021/10/16 05:08:53;;;;;;;3.83;2.72;;;;;;;8.66;67.47;99689.47;4791594;29;20221;-79
2021/10/16 05:11:20;;;;;;;18.55;3.13;;;;;;;8.68;67.22;99680.66;4822125;29;20090;-80
2021/10/16 05:13:46;;;;;;;19.40;3.25;;;;;;;8.65;67.22;99678.22;4806097;29;20058;-80
2021/10/16 05:16:13;;;;;;;2.80;2.63;;;;;;;8.63;66.77;99679.22;4808025;29;20056;-79
2021/10/16 05:18:39;;;;;;;2.47;2.28;;;;;;;8.68;67.10;99687.63;4821351;29;20084;-80
2021/10/16 05:21:05;;;;;;;3.45;2.88;;;;;;;8.71;66.73;99682.25;4825556;29;20058;-80
2021/10/16 05:23:32;;;;;;;1.83;1.80;;;;;;;8.71;67.00;99683.09;4824983;29;20050;-78
2021/10/16 05:25:59;;;;;;;2.95;2.78;;;;;;;8.73;66.55;99667.44;4808499;29;20066;-80
2021/10/16 05:28:25;;;;;;;1.05;1.05;;;;;;;8.75;66.63;99657.78;4821298;29;20089;-79
2021/10/16 05:30:54;;;;;;;1.55;1.52;;;;;;;8.79;67.07;99659.31;4806993;29;20210;-80
2021/10/16 05:33:20;;;;;;;3.47;3.17;;;;;;;8.72;67.65;99657.94;4805820;29;20046;-79
2021/10/16 05:35:47;;;;;;;2.47;2.10;;;;;;;8.79;66.38;99664.50;4776398;29;20061;-79
2021/10/16 05:38:18;;;;;;;2.38;2.28;;;;;;;8.85;66.63;99653.78;4820793;29;20124;-80
2021/10/16 05:40:45;;;;;;;2.05;1.98;;;;;;;8.85;66.59;99661.59;4806152;29;20066;-78
2021/10/16 05:43:12;;;;;;;6.75;3.00;;;;;;;8.87;66.11;99662.34;4790108;29;20111;-80
2021/10/16 05:45:39;;;;;;;3.30;2.00;;;;;;;8.93;66.22;99654.25;4805302;29;20054;-78
2021/10/16 05:48:05;;;;;;;2.35;2.05;;;;;;;8.97;65.94;99650.53;4821958;29;20085;-81
2021/10/16 05:50:32;;;;;;;2.08;1.98;;;;;;;9.06;65.47;99639.69;4807027;29;20054;-83
2021/10/16 05:53:02;;;;;;;1.63;1.58;;;;;;;9.14;65.42;99645.31;4821490;29;20058;-81
2021/10/16 05:55:28;;;;;;;3.90;2.83;;;;;;;9.21;64.59;99641.47;4820935;29;20095;-82
2021/10/16 05:57:54;;;;;;;2.92;2.83;;;;;;;9.26;64.94;99639.44;4821496;29;20433;-78
2021/10/16 06:00:20;;;;;;;1.10;1.10;;;;;;;9.34;65.01;99636.44;4820209;29;20077;-78
2021/10/16 06:02:54;;;;;;;1.95;1.85;;;;;;;9.35;65.15;99631.16;4821491;29;20050;-76
2021/10/16 06:05:29;;;;;;;11.15;1.95;;;;;;;9.40;63.71;99630.91;4791070;29;20054;-80
2021/10/16 06:07:57;;;;;;;2.85;2.65;;;;;;;9.49;64.53;99640.81;4820306;29;20065;-79
2021/10/16 06:10:24;;;;;;;2.83;2.63;;;;;;;9.47;64.38;99637.47;4819993;29;20057;-79
2021/10/16 06:12:50;;;;;;;1.90;1.63;;;;;;;9.52;63.45;99630.22;4820354;29;20147;-80
2021/10/16 06:15:16;;;;;;;2.75;1.85;;;;;;;9.49;64.33;99627.78;4831245;29;20190;-79
2021/10/16 06:17:43;;;;;;;2.78;2.58;;;;;;;9.50;64.55;99620.81;4824503;29;20054;-79
2021/10/16 06:20:11;;;;;;;2.22;2.13;;;;;;;9.47;64.24;99621.00;4808635;29;20141;-80
2021/10/16 06:22:38;;;;;;;4.55;2.60;;;;;;;9.55;63.11;99618.81;4824609;29;20054;-79
2021/10/16 06:25:04;;;;;;;2.45;2.35;;;;;;;9.59;63.30;99625.53;4810845;29;20497;-78
2021/10/16 06:27:31;;;;;;;3.08;2.83;;;;;;;9.57;63.11;99607.38;4841226;29;20042;-78
2021/10/16 06:29:57;;;;;;;2.63;2.42;;;;;;;9.59;62.83;99626.38;4823720;29;20077;-78
2021/10/16 06:32:23;;;;;;;18.00;2.10;;;;;;;9.68;62.98;99625.06;4822929;29;20089;-77
2021/10/16 06:34:52;;;;;;;2.72;2.53;;;;;;;9.73;62.67;99625.63;4794011;29;20052;-79
2021/10/16 06:37:18;;;;;;;2.08;1.98;;;;;;;9.78;62.85;99631.44;4808285;29;20149;-77
2021/10/16 06:39:44;;;;;;;2.00;1.90;;;;;;;9.76;62.47;99628.06;4808018;29;20118;-75
2021/10/16 06:42:10;;;;;;;2.08;1.98;;;;;;;9.74;62.95;99622.09;4807644;29;20058;-74
2021/10/16 06:44:44;;;;;;;7.13;2.58;;;;;;;9.77;62.55;99624.53;4822609;29;20062;-74
2021/10/16 06:47:29;;;;;;;1.35;1.35;;;;;;;9.82;62.32;99618.13;4823998;29;20085;-74
2021/10/16 06:50:06;;;;;;;2.00;1.90;;;;;;;9.90;62.31;99628.16;4824967;29;20054;-77
2021/10/16 06:52:32;;;;;;;2.20;2.10;;;;;;;10.03;62.25;99615.25;4808481;29;20062;-77
2021/10/16 06:55:00;;;;;;;2.13;2.03;;;;;;;10.00;60.92;99616.28;4822963;29;20054;-77
2021/10/16 06:57:26;;;;;;;2.25;2.13;;;;;;;10.07;61.18;99612.41;4827449;29;20061;-74
2021/10/16 06:59:53;;;;;;;2.10;1.90;;;;;;;10.07;61.02;99628.06;4828002;29;20626;-75
2021/10/16 07:02:20;;;;;;;2.25;2.08;;;;;;;10.07;61.12;99609.78;4813603;29;20070;-76
2021/10/16 07:04:52;;;;;;;1.92;1.90;;;;;;;10.06;61.00;99607.25;4814044;29;20050;-78
2021/10/16 07:07:19;;;;;;;3.05;2.85;;;;;;;10.11;60.64;99611.28;4815365;29;20056;-81
2021/10/16 07:09:52;;;;;;;2.13;2.03;;;;;;;10.14;60.72;99613.78;4819628;29;20053;-78
2021/10/16 07:12:18;;;;;;;3.38;2.55;;;;;;;10.15;60.28;99602.38;4844352;29;20056;-76
2021/10/16 07:14:44;;;;;;;2.33;2.20;;;;;;;10.23;59.48;99608.03;4836079;29;20059;-76
2021/10/16 07:17:11;;;;;;;2.33;2.10;;;;;;;10.33;59.43;99598.75;4824015;29;20082;-76
2021/10/16 07:19:37;;;;;;;3.20;2.90;;;;;;;10.26;59.16;99597.41;4825601;29;20092;-74
2021/10/16 07:22:03;;;;;;;2.25;1.92;;;;;;;10.27;59.66;99591.28;4828656;29;20320;-75
2021/10/16 07:24:29;;;;;;;3.28;1.92;;;;;;;10.32;58.77;99594.44;4820616;29;20137;-76
2021/10/16 07:26:55;;;;;;;5.18;2.20;;;;;;;10.37;58.21;99599.41;4843997;29;20110;-75
2021/10/16 07:29:25;;;;;;;2.20;2.10;;;;;;;10.49;57.42;99603.91;4833548;29;20114;-76
2021/10/16 07:31:52;;;;;;;1.88;1.77;;;;;;;10.52;56.24;99587.22;4825584;29;20548;-75
2021/10/16 07:34:18;;;;;;;4.97;2.80;;;;;;;10.60;56.68;99595.44;4825995;29;20055;-76
2021/10/16 07:36:44;;;;;;;1.38;1.38;;;;;;;10.65;56.68;99609.06;4828421;29;20045;-75
2021/10/16 07:39:10;;;;;;;1.77;1.63;;;;;;;10.60;56.53;99596.25;4842260;29;20060;-76
2021/10/16 07:41:36;;;;;;;3.10;2.58;;;;;;;10.66;56.26;99603.75;4843393;29;20483;-76
2021/10/16 07:44:03;;;;;;;17.35;2.67;;;;;;;10.66;55.81;99595.09;4843613;29;20054;-74
2021/10/16 07:46:30;;;;;;;1.52;1.52;;;;;;;10.70;55.72;99591.38;4843492;29;20057;-74
2021/10/16 07:48:55;;;;;;;2.55;2.35;;;;;;;10.64;55.98;99604.75;4843522;29;20436;-74
2021/10/16 07:51:21;;;;;;;2.70;1.58;;;;;;;10.63;56.12;99595.25;4843508;29;20058;-76
2021/10/16 07:53:47;;;;;;;2.25;2.15;;;;;;;10.60;55.29;99590.22;4826554;29;20053;-75
2021/10/16 07:56:13;;;;;;;2.53;1.70;;;;;;;10.59;55.25;99591.16;4843844;29;20053;-76
2021/10/16 07:58:41;;;;;;;1.52;1.42;;;;;;;10.52;55.91;99597.66;4845181;29;20052;-75
2021/10/16 08:01:08;;;;;;;2.00;1.90;;;;;;;10.48;56.84;99596.16;4850513;29;20057;-75
2021/10/16 08:03:34;;;;;;;2.65;2.45;;;;;;;10.45;56.12;99600.63;4818222;29;20057;-77
2021/10/16 08:06:00;;;;;;;2.38;2.28;;;;;;;10.44;55.83;99596.31;4839032;29;20097;-78
2021/10/16 08:08:29;;;;;;;2.38;2.28;;;;;;;10.41;55.23;99586.06;4795151;29;20064;-75
2021/10/16 08:10:56;;;;;;;13.32;1.65;;;;;;;10.49;55.74;99597.84;4820068;29;20081;-74
2021/10/16 08:13:25;;;;;;;2.65;2.45;;;;;;;10.50;55.95;99600.38;4825784;29;20062;-74
2021/10/16 08:15:52;;;;;;;2.17;2.08;;;;;;;10.57;55.40;99598.25;4830865;29;20077;-75
2021/10/16 08:18:19;;;;;;;2.30;2.08;;;;;;;10.60;54.40;99585.00;4840197;29;20457;-74
2021/10/16 08:20:45;;;;;;;2.13;2.03;;;;;;;10.61;54.44;99597.94;4830080;29;20687;-73
2021/10/16 08:23:11;;;;;;;5.82;3.22;;;;;;;10.70;53.94;99586.97;4840142;29;20085;-74
2021/10/16 08:25:37;;;;;;;2.10;2.00;;;;;;;10.76;54.83;99564.88;4824076;29;20099;-74
2021/10/16 08:28:10;;;;;;;2.47;2.28;;;;;;;10.87;54.87;99581.56;4835227;29;20057;-76
2021/10/16 08:30:37;;;;;;;1.92;1.83;;;;;;;10.94;53.97;99584.66;4822940;29;20058;-76
2021/10/16 08:33:03;;;;;;;5.93;3.42;;;;;;;10.97;54.32;99581.84;4824270;29;20057;-78
2021/10/16 08:35:29;;;;;;;2.70;2.55;;;;;;;11.05;53.39;99590.06;4822478;29;20065;-76
2021/10/16 08:37:55;;;;;;;2.75;2.55;;;;;;;11.11;53.44;99594.91;4840123;29;20226;-77
2021/10/16 08:40:21;;;;;;;4.20;1.80;;;;;;;11.23;53.17;99591.53;4794280;29;20548;-75
2021/10/16 08:42:47;;;;;;;2.50;2.30;;;;;;;11.25;52.76;99594.94;4808697;29;20124;-74
2021/10/16 08:45:13;;;;;;;1.75;1.55;;;;;;;11.44;52.73;99585.00;4833534;29;20053;-75
2021/10/16 08:47:39;;;;;;;2.30;2.20;;;;;;;11.41;52.06;99584.34;4820470;29;20537;-77
2021/10/16 08:50:09;;;;;;;2.03;1.92;;;;;;;11.43;52.08;99588.53;4823655;29;20061;-78
2021/10/16 08:52:36;;;;;;;1.75;1.65;;;;;;;11.47;51.50;99582.19;4806942;29;20046;-77
2021/10/16 08:55:03;;;;;;;2.05;1.95;;;;;;;11.45;51.33;99565.75;4821468;29;20428;-77
2021/10/16 08:57:32;;;;;;;2.22;2.03;;;;;;;11.46;51.69;99571.81;4821440;29;20052;-77
2021/10/16 08:59:59;;;;;;;2.58;2.47;;;;;;;11.43;51.30;99572.84;4805131;29;20054;-78
2021/10/16 09:02:38;;;;;;;2.88;2.67;;;;;;;11.45;51.03;99584.03;4778622;29;20085;-78
2021/10/16 09:05:10;;;;;;;2.03;1.92;;;;;;;11.47;50.46;99560.44;4839932;29;20057;-77
2021/10/16 09:07:40;;;;;;;2.92;2.65;;;;;;;11.53;51.14;99586.19;4841278;29;20057;-75
2021/10/16 09:10:40;;;;;;;4.78;2.97;;;;;;;11.44;50.60;99578.94;4840513;29;20054;-80
2021/10/16 09:13:12;;;;;;;2.63;2.45;;;;;;;11.48;50.24;99549.88;4790248;29;20089;-76
2021/10/16 09:15:44;;;;;;;11.60;1.98;;;;;;;11.48;50.68;99580.41;4840257;29;20213;-79
2021/10/16 09:18:10;;;;;;;2.33;2.22;;;;;;;11.59;50.79;99588.41;4822294;29;20066;-77
2021/10/16 09:20:37;;;;;;;3.25;2.92;;;;;;;11.56;50.40;99580.75;4816893;29;20053;-78
2021/10/16 09:23:07;;;;;;;2.88;2.67;;;;;;;11.60;49.78;99579.63;4811904;29;20153;-78
2021/10/16 09:25:33;;;;;;;10.07;3.13;;;;;;;11.59;49.40;99572.72;4823987;29;20497;-77
2021/10/16 09:28:15;;;;;;;4.40;2.63;;;;;;;11.62;49.95;99587.38;4809993;29;20060;-77
2021/10/16 09:30:45;;;;;;;3.85;3.55;;;;;;;11.67;49.37;99577.47;4824026;29;20061;-77
2021/10/16 09:33:11;;;;;;;2.73;2.53;;;;;;;11.74;49.99;99565.72;4823697;29;20065;-77
2021/10/16 09:35:39;;;;;;;4.10;2.38;;;;;;;11.71;49.27;99564.16;4793148;29;20115;-80
2021/10/16 09:38:05;;;;;;;2.72;2.53;;;;;;;11.73;49.47;99569.25;4822288;29;20054;-79
2021/10/16 09:40:39;;;;;;;2.70;2.50;;;;;;;11.79;49.64;99554.00;4814715;29;20786;-77
2021/10/16 09:43:27;;;;;;;3.97;2.97;;;;;;;11.93;49.27;99560.97;4839359;29;20129;-79
2021/10/16 09:46:15;;;;;;;;;;;;;;;12.01;49.26;99584.84;4828433;29;20053;-75
2021/10/16 09:48:41;;;;;;;16.55;3.92;;;;;;;11.88;47.29;99534.25;4817841;29;19925;-76
2021/10/16 09:51:07;;;;;;;2.42;2.22;;;;;;;11.91;47.35;99545.38;4814744;29;20054;-77
2021/10/16 09:53:33;;;;;;;1.30;1.23;;;;;;;11.96;47.37;99545.06;4823222;29;20046;-79
2021/10/16 09:56:00;;;;;;;2.00;1.90;;;;;;;11.94;47.38;99562.66;4833497;29;20061;-78
2021/10/16 09:58:26;;;;;;;3.47;1.70;;;;;;;12.02;46.99;99550.75;4807323;29;20054;-77
2021/10/16 10:00:52;;;;;;;3.13;1.65;;;;;;;12.08;46.95;99538.19;4797363;29;20189;-76
2021/10/16 10:03:24;;;;;;;2.55;2.28;;;;;;;12.03;46.32;99546.34;4839456;29;20113;-75
2021/10/16 10:05:51;;;;;;;6.50;2.78;;;;;;;11.99;46.54;99540.50;4856291;29;20530;-76
2021/10/16 10:08:20;;;;;;;2.00;1.85;;;;;;;12.00;46.19;99541.34;4851973;29;20085;-76
2021/10/16 10:10:47;;;;;;;1.60;1.50;;;;;;;12.05;46.42;99538.38;4863023;29;20057;-76
2021/10/16 10:13:14;;;;;;;2.40;2.20;;;;;;;12.06;46.60;99537.47;4858696;29;20053;-79
2021/10/16 10:15:40;;;;;;;2.53;2.40;;;;;;;12.14;47.00;99538.63;4843370;29;20052;-77
2021/10/16 10:21:01;;;;;;;2.33;2.13;;;;;;;12.19;46.62;99548.78;4822821;29;20409;-80
2021/10/16 10:23:27;;;;;;;1.90;1.75;;;;;;;12.20;46.83;99553.09;4853486;29;20060;-82
2021/10/16 10:26:37;;;;;;;3.38;3.15;;;;;;;12.13;46.01;99536.13;4860704;29;20681;-82
2021/10/16 10:29:05;;;;;;;3.67;2.88;;;;;;;12.16;46.01;99536.75;4877720;29;20060;-77
2021/10/16 10:31:53;;;;;;;2.28;2.13;;;;;;;12.17;46.11;99512.25;4817483;29;20049;-78
2021/10/16 10:34:24;;;;;;;1.20;1.10;;;;;;;12.21;46.80;99529.44;4857366;29;20054;-76
2021/10/16 10:36:51;;;;;;;;;;;;;;;12.19;45.56;99525.25;4859796;29;20121;-78
2021/10/16 10:39:27;;;;;;;1.50;1.50;;;;;;;12.16;45.66;99505.34;4825741;29;20279;-80
2021/10/16 10:41:55;;;;;;;6.20;3.10;;;;;;;12.19;46.39;99520.00;4853626;29;20413;-81
2021/10/16 10:44:44;;;;;;;2.30;2.20;;;;;;;12.17;45.56;99527.94;4856964;29;20081;-79
2021/10/16 10:47:23;;;;;;;55.83;6.63;;;;;;;12.15;45.26;99501.06;4857471;29;20072;-81
2021/10/16 10:49:49;;;;;;;2.00;1.75;;;;;;;12.17;45.39;99522.72;4857645;29;20057;-80
2021/10/16 10:52:16;;;;;;;2.47;2.25;;;;;;;12.19;45.67;99526.09;4814594;29;20058;-79
2021/10/16 10:55:08;;;;;;;1.40;1.40;;;;;;;12.24;44.94;99531.84;4824930;29;20602;-75
2021/10/16 10:57:43;;;;;;;4.25;2.97;;;;;;;12.24;45.30;99521.38;4843697;29;20519;-77
2021/10/16 11:00:11;;;;;;;2.50;2.38;;;;;;;12.21;45.92;99521.56;4840745;29;20060;-77
2021/10/16 11:02:37;;;;;;;3.28;2.38;;;;;;;12.27;45.05;99526.41;4788208;29;20139;-75
2021/10/16 11:05:34;;;;;;;2.47;2.15;;;;;;;12.27;44.63;99523.78;4818195;29;20979;-77
2021/10/16 11:08:18;;;;;;;2.00;1.90;;;;;;;12.28;45.33;99525.47;4820820;29;20056;-79
2021/10/16 11:10:44;;;;;;;1.90;1.80;;;;;;;12.34;45.13;99530.28;4816819;29;20477;-79
2021/10/16 11:13:14;;;;;;;24.60;3.22;;;;;;;12.39;44.53;99525.59;4819433;29;20134;-80
2021/10/16 11:15:41;;;;;;;2.00;1.90;;;;;;;12.36;44.97;99522.34;4832787;29;20054;-79
2021/10/16 11:18:11;;;;;;;2.63;2.42;;;;;;;12.38;45.44;99521.28;4827670;29;20050;-77
2021/10/16 11:20:38;;;;;;;4.88;1.65;;;;;;;12.35;46.02;99524.13;4802341;29;20114;-79
2021/10/16 11:23:04;;;;;;;11.93;3.10;;;;;;;12.33;45.54;99526.00;4777173;29;20141;-77
2021/10/16 11:25:32;;;;;;;1.55;1.55;;;;;;;12.38;44.98;99531.75;4836741;29;20058;-76
2021/10/16 11:28:08;;;;;;;2.88;2.05;;;;;;;12.37;44.88;99500.44;4820813;29;20053;-78
2021/10/16 11:30:45;;;;;;;2.55;2.35;;;;;;;12.35;45.56;99524.13;4811325;29;20050;-76
2021/10/16 11:33:19;;;;;;;15.35;2.13;;;;;;;12.43;45.09;99521.81;4818274;29;20700;-75
2021/10/16 11:35:46;;;;;;;2.88;2.45;;;;;;;12.30;45.45;99523.56;4826409;29;20056;-76
2021/10/16 11:38:14;;;;;;;6.25;2.75;;;;;;;12.36;45.79;99525.81;4810174;29;20070;-75
2021/10/16 11:40:48;;;;;;;2.60;2.08;;;;;;;12.31;45.46;99520.03;4821100;29;20111;-76
2021/10/16 11:43:41;;;;;;;3.42;3.05;;;;;;;12.32;45.12;99515.63;4820380;29;20062;-77
2021/10/16 11:46:22;;;;;;;1.63;1.52;;;;;;;12.38;45.76;99529.16;4817683;29;20053;-75
2021/10/16 11:48:50;;;;;;;3.20;2.72;;;;;;;12.30;45.86;99507.06;4811543;29;20050;-74